EDVK/KSF METAR and TAF weather

Enter ICAO airport designator
Station Type Date Time Source
EDVK METAR 2018/12/11 13:20 UTC NOAA

EDVK 111320Z 31014KT 9999 SCT013 BKN018 03/01 Q1019


Station Type Date Time Source
EDVK Decoded METAR 2018/12/11 13:20 UTC NOAA

Kassel / Calden, Germany (EDVK) 51-24N 009-23E 283M
Dec 11, 2018 - 08:20 AM EST / 2018.12.11 1320 UTC
Wind: from the NW (310 degrees) at 16 MPH (14 KT):0
Visibility: greater than 7 mile(s):0
Sky conditions: mostly cloudy
Temperature: 37 F (3 C)
Dew Point: 33 F (1 C)
Relative Humidity: 86%
Pressure (altimeter): 30.09 in. Hg (1019 hPa)
ob: EDVK 111320Z 31014KT 9999 SCT013 BKN018 03/01 Q1019
cycle: 13

Station Type Date Time Source
EDVK TAF 2011/03/23 07:09 UTC NOAA

TAF COR EDVK 230655Z 2307/2321 30002KT 3500 BR SCT025 PROB30
TEMPO 2307/2309 1400 BCFG
BECMG 2307/2310 01007KT 8000


Example: see airport list